Time;durP1;ratioP1;P1;durP2;ratioP2;P2;SDS_P1;SDS_P2;PMS_P1;PMS_P2;Temp;Humidity;BMP_temperature;BMP_pressure;BME280_temperature;BME280_humidity;BME280_pressure;Samples;Min_cycle;Max_cycle;Signal;HPM_P1;HPM_P2
2021/05/22 00:01:55;;;;;;;3.72;0.20;;;9.70;99.90;;;;;;4990581;28;20050;-82
2021/05/22 00:04:21;;;;;;;4.43;0.35;;;9.70;99.90;;;;;;4990608;28;20034;-82
2021/05/22 00:06:46;;;;;;;1.98;0.30;;;9.70;99.90;;;;;;5007159;28;20050;-81
2021/05/22 00:09:12;;;;;;;1.48;0.30;;;9.60;99.90;;;;;;5007899;28;20030;-83
2021/05/22 00:11:38;;;;;;;3.22;0.20;;;9.60;99.90;;;;;;5007930;28;20038;-83
2021/05/22 00:14:05;;;;;;;2.28;0.20;;;9.60;99.90;;;;;;5008024;28;20387;-81
2021/05/22 00:16:31;;;;;;;2.08;0.20;;;9.60;99.90;;;;;;5005838;28;20045;-83
2021/05/22 00:18:57;;;;;;;2.05;0.20;;;9.50;99.90;;;;;;4974109;28;20034;-82
2021/05/22 00:21:23;;;;;;;1.58;0.30;;;9.60;99.90;;;;;;5006632;28;20031;-83
2021/05/22 00:23:48;;;;;;;3.83;0.30;;;9.60;99.90;;;;;;4989989;28;20057;-83
2021/05/22 00:26:14;;;;;;;1.90;0.30;;;9.60;99.90;;;;;;4986835;28;20054;-83
2021/05/22 00:28:40;;;;;;;4.65;0.30;;;9.70;99.90;;;;;;4954909;28;20031;-83
2021/05/22 00:31:06;;;;;;;2.22;0.40;;;9.70;99.90;;;;;;4970684;28;20398;-84
2021/05/22 00:33:32;;;;;;;4.25;0.98;;;9.70;99.90;;;;;;4970488;28;20102;-84
2021/05/22 00:35:57;;;;;;;3.53;0.30;;;9.70;99.90;;;;;;4954481;28;20031;-79
2021/05/22 00:38:23;;;;;;;3.20;0.20;;;9.70;99.90;;;;;;4970459;28;20041;-81
2021/05/22 00:40:49;;;;;;;2.05;0.30;;;9.70;99.90;;;;;;4987807;28;20034;-82
2021/05/22 00:43:16;;;;;;;2.45;0.20;;;9.60;99.90;;;;;;4987931;28;20043;-83
2021/05/22 00:45:43;;;;;;;2.92;0.20;;;9.70;99.90;;;;;;4987933;28;20034;-84
2021/05/22 00:48:10;;;;;;;2.40;0.20;;;9.80;99.90;;;;;;4970644;28;20115;-83
2021/05/22 00:50:41;;;;;;;2.92;0.20;;;9.70;99.90;;;;;;4970270;28;20027;-84
2021/05/22 00:53:09;;;;;;;3.13;0.20;;;9.80;99.90;;;;;;4970911;28;20110;-86
2021/05/22 00:55:35;;;;;;;3.70;0.30;;;9.80;99.90;;;;;;4976798;28;20038;-84
2021/05/22 00:58:03;;;;;;;3.60;0.20;;;9.70;99.90;;;;;;4989340;28;20097;-83
2021/05/22 01:00:46;;;;;;;1.40;0.25;;;9.60;99.90;;;;;;5005837;28;20038;-81
2021/05/22 01:03:32;;;;;;;2.50;0.30;;;9.60;99.90;;;;;;5006690;28;20034;-82
2021/05/22 01:06:18;;;;;;;2.17;0.20;;;9.60;99.90;;;;;;4995243;23;20057;-79
2021/05/22 01:09:00;;;;;;;3.33;0.20;;;9.60;99.90;;;;;;4989193;28;20033;-81
2021/05/22 01:11:31;;;;;;;2.90;0.20;;;9.50;99.90;;;;;;4989236;28;20061;-84
2021/05/22 01:14:18;;;;;;;2.63;0.30;;;9.60;99.90;;;;;;4989315;28;20118;-83
2021/05/22 01:16:45;;;;;;;3.58;0.20;;;9.60;99.90;;;;;;4989058;28;20038;-82
2021/05/22 01:19:36;;;;;;;2.47;0.20;;;9.70;99.90;;;;;;4989202;28;20058;-83
2021/05/22 01:22:05;;;;;;;4.07;0.20;;;9.70;99.90;;;;;;4989270;28;20050;-83
2021/05/22 01:24:41;;;;;;;3.65;0.20;;;9.80;99.90;;;;;;5005547;28;20121;-83
2021/05/22 01:27:06;;;;;;;4.55;0.20;;;9.80;99.90;;;;;;4985986;28;20031;-83
2021/05/22 01:29:32;;;;;;;6.30;0.30;;;9.80;99.90;;;;;;4987301;28;20057;-83
2021/05/22 01:31:58;;;;;;;2.83;0.40;;;9.90;99.90;;;;;;4987164;28;20034;-83
2021/05/22 01:34:24;;;;;;;1.85;0.20;;;9.90;99.90;;;;;;4987838;28;20027;-82
2021/05/22 01:36:50;;;;;;;3.55;0.20;;;9.90;99.90;;;;;;4973183;28;20138;-84
2021/05/22 01:39:15;;;;;;;2.00;0.15;;;10.00;99.90;;;;;;4973654;28;20042;-82
2021/05/22 01:41:41;;;;;;;2.70;0.20;;;10.00;99.90;;;;;;4990876;28;20023;-83
2021/05/22 01:44:09;;;;;;;2.63;0.20;;;10.00;99.90;;;;;;4989931;28;20043;-85
2021/05/22 01:46:36;;;;;;;4.40;0.20;;;10.00;99.90;;;;;;4990443;28;20053;-84
2021/05/22 01:49:02;;;;;;;3.85;0.20;;;10.00;99.90;;;;;;4973410;28;20495;-83
2021/05/22 01:51:28;;;;;;;6.28;0.20;;;10.00;99.90;;;;;;4990848;28;20042;-83
2021/05/22 01:54:09;;;;;;;3.10;0.38;;;10.00;99.90;;;;;;4973192;28;20054;-82
2021/05/22 01:56:36;;;;;;;1.90;0.25;;;10.10;99.90;;;;;;4957010;28;20035;-83
2021/05/22 01:59:02;;;;;;;4.45;0.20;;;10.10;99.90;;;;;;4973068;28;20058;-83
2021/05/22 02:01:27;;;;;;;2.60;0.20;;;10.10;99.90;;;;;;4989271;28;20050;-83
2021/05/22 02:03:57;;;;;;;2.47;0.20;;;10.10;99.90;;;;;;4989049;28;20039;-83
2021/05/22 02:06:29;;;;;;;2.03;0.13;;;10.10;99.90;;;;;;4989825;28;20061;-82
2021/05/22 02:09:00;;;;;;;3.92;0.30;;;10.00;99.90;;;;;;4972706;28;20042;-83
2021/05/22 02:11:33;;;;;;;4.03;0.30;;;10.00;99.90;;;;;;4988831;28;20035;-82
2021/05/22 02:14:01;;;;;;;5.00;0.20;;;10.00;99.90;;;;;;4972640;28;20058;-82
2021/05/22 02:16:31;;;;;;;3.53;0.20;;;10.00;99.90;;;;;;4990017;28;20035;-81
2021/05/22 02:18:59;;;;;;;2.80;0.97;;;10.00;99.90;;;;;;4972487;28;20035;-82
2021/05/22 02:21:27;;;;;;;3.28;0.20;;;10.00;99.90;;;;;;4956704;28;20297;-84
2021/05/22 02:23:53;;;;;;;1.50;0.20;;;9.90;99.90;;;;;;4972568;28;20062;-83
2021/05/22 02:26:25;;;;;;;4.53;0.20;;;9.90;99.90;;;;;;4990754;28;20034;-85
2021/05/22 02:28:53;;;;;;;3.53;0.30;;;9.90;99.90;;;;;;4975794;28;20030;-82
2021/05/22 02:31:28;;;;;;;4.00;0.20;;;9.90;99.90;;;;;;4991849;28;20031;-83
2021/05/22 02:33:57;;;;;;;4.50;0.38;;;9.90;99.90;;;;;;4991654;28;20030;-82
2021/05/22 02:36:24;;;;;;;2.90;0.20;;;10.00;99.90;;;;;;4991396;28;20084;-83
2021/05/22 02:38:52;;;;;;;2.78;0.30;;;10.00;99.90;;;;;;4991727;28;20026;-83
2021/05/22 02:41:20;;;;;;;2.90;0.17;;;10.00;99.90;;;;;;4991833;28;20034;-83
2021/05/22 02:43:52;;;;;;;4.78;0.30;;;10.00;99.90;;;;;;5009303;28;20046;-83
2021/05/22 02:46:20;;;;;;;2.00;0.10;;;10.10;99.90;;;;;;5008663;28;20042;-84
2021/05/22 02:48:47;;;;;;;0.95;0.10;;;10.10;99.90;;;;;;4992199;28;20041;-81
2021/05/22 02:51:16;;;;;;;2.42;0.30;;;10.10;99.90;;;;;;4991481;28;20462;-82
2021/05/22 02:53:44;;;;;;;6.13;0.30;;;10.10;99.90;;;;;;5008847;28;20030;-83
2021/05/22 02:56:12;;;;;;;3.08;0.43;;;10.10;99.90;;;;;;4991358;28;20038;-84
2021/05/22 02:58:40;;;;;;;2.22;0.20;;;10.10;99.90;;;;;;5008786;28;20037;-81
2021/05/22 03:01:06;;;;;;;2.05;0.10;;;10.00;99.90;;;;;;5008692;28;20030;-83
2021/05/22 03:03:32;;;;;;;1.10;0.10;;;10.00;99.90;;;;;;5008425;28;20046;-83
2021/05/22 03:06:04;;;;;;;2.58;0.95;;;10.00;99.90;;;;;;4990881;28;20026;-83
2021/05/22 03:08:29;;;;;;;1.88;0.13;;;10.00;99.90;;;;;;5008823;28;20041;-84
2021/05/22 03:10:56;;;;;;;3.30;0.15;;;10.10;99.90;;;;;;4991265;28;20038;-84
2021/05/22 03:13:23;;;;;;;5.07;0.20;;;10.00;99.90;;;;;;5008624;28;20041;-83
2021/05/22 03:15:49;;;;;;;3.83;0.20;;;10.00;99.90;;;;;;4991091;28;20034;-86
2021/05/22 03:18:15;;;;;;;3.50;0.20;;;10.00;99.90;;;;;;4974956;28;20045;-83
2021/05/22 03:20:41;;;;;;;2.67;0.30;;;10.00;99.90;;;;;;4991014;28;20026;-83
2021/05/22 03:23:07;;;;;;;2.25;0.20;;;10.00;99.90;;;;;;5008428;28;20036;-83
2021/05/22 03:25:32;;;;;;;1.55;0.20;;;10.00;99.90;;;;;;5008436;28;20026;-82
2021/05/22 03:27:58;;;;;;;1.95;0.20;;;10.00;99.90;;;;;;5008356;28;20062;-83
2021/05/22 03:30:24;;;;;;;2.53;0.20;;;10.00;99.90;;;;;;5008255;28;20026;-84
2021/05/22 03:32:50;;;;;;;2.55;0.20;;;9.90;99.90;;;;;;4990935;28;20479;-85
2021/05/22 03:35:16;;;;;;;2.10;0.20;;;10.00;99.90;;;;;;4990554;28;20070;-83
2021/05/22 03:37:42;;;;;;;4.78;0.20;;;9.90;99.90;;;;;;5008068;28;20030;-83
2021/05/22 03:40:09;;;;;;;1.35;0.10;;;10.00;99.90;;;;;;4990594;28;20041;-84
2021/05/22 03:42:35;;;;;;;4.05;0.30;;;10.00;99.90;;;;;;5006840;28;20026;-83
2021/05/22 03:45:00;;;;;;;5.32;0.20;;;10.10;99.90;;;;;;5008132;28;20573;-82
2021/05/22 03:47:26;;;;;;;3.72;0.30;;;10.10;99.90;;;;;;5008110;28;20036;-83
2021/05/22 03:49:51;;;;;;;4.78;0.30;;;10.10;99.90;;;;;;4990361;28;20113;-83
2021/05/22 03:52:17;;;;;;;6.10;0.30;;;10.10;99.90;;;;;;4990710;28;20590;-83
2021/05/22 03:54:45;;;;;;;4.13;0.25;;;10.10;99.90;;;;;;4990527;28;20062;-82
2021/05/22 03:57:10;;;;;;;3.40;0.60;;;10.10;99.90;;;;;;5005605;28;20054;-84
2021/05/22 03:59:36;;;;;;;1.80;0.17;;;10.10;99.90;;;;;;5006829;28;20026;-82
2021/05/22 04:02:01;;;;;;;2.85;0.30;;;10.10;99.90;;;;;;4990186;28;20036;-81
2021/05/22 04:04:27;;;;;;;1.65;0.17;;;10.10;99.90;;;;;;5007593;28;20117;-84
2021/05/22 04:06:53;;;;;;;2.15;0.10;;;10.20;99.90;;;;;;4989516;28;20142;-81
2021/05/22 04:09:18;;;;;;;1.73;0.40;;;10.20;99.90;;;;;;5005734;28;20074;-81
2021/05/22 04:11:44;;;;;;;3.58;0.20;;;10.20;99.90;;;;;;4989540;28;20031;-83
2021/05/22 04:14:09;;;;;;;2.78;0.20;;;10.20;99.90;;;;;;5005820;28;20034;-81
2021/05/22 04:16:35;;;;;;;4.97;0.20;;;10.20;99.90;;;;;;5006910;28;20029;-80
2021/05/22 04:19:02;;;;;;;4.63;0.20;;;10.20;99.90;;;;;;4989324;28;20040;-83
2021/05/22 04:21:28;;;;;;;1.40;0.10;;;10.20;99.90;;;;;;4989105;28;20102;-83
2021/05/22 04:23:54;;;;;;;2.92;0.30;;;10.20;99.90;;;;;;5005333;28;20375;-83
2021/05/22 04:26:20;;;;;;;1.52;0.20;;;10.20;99.90;;;;;;5005079;28;20038;-83
2021/05/22 04:28:45;;;;;;;3.08;0.30;;;10.20;99.90;;;;;;5006629;28;20038;-82
2021/05/22 04:31:11;;;;;;;4.25;0.20;;;10.20;99.90;;;;;;4972765;28;20058;-81
2021/05/22 04:33:36;;;;;;;3.85;0.25;;;10.20;99.90;;;;;;4989234;28;20041;-81
2021/05/22 04:36:02;;;;;;;4.45;0.30;;;10.20;99.90;;;;;;4988455;28;20042;-80
2021/05/22 04:38:28;;;;;;;5.10;0.47;;;10.20;99.90;;;;;;5006506;28;20026;-81
2021/05/22 04:40:54;;;;;;;3.95;0.30;;;10.20;99.90;;;;;;5006421;28;20041;-82
2021/05/22 04:43:21;;;;;;;6.00;0.30;;;10.20;99.90;;;;;;5006231;28;20434;-84
2021/05/22 04:45:47;;;;;;;3.15;0.20;;;10.20;99.90;;;;;;5006247;28;20069;-84
2021/05/22 04:48:13;;;;;;;2.70;0.20;;;10.20;99.90;;;;;;5006212;28;20061;-83
2021/05/22 04:50:38;;;;;;;3.25;0.30;;;10.20;99.90;;;;;;5005974;28;20090;-84
2021/05/22 04:53:04;;;;;;;7.53;0.40;;;10.20;99.90;;;;;;4988728;28;20041;-85
2021/05/22 04:55:30;;;;;;;7.15;0.30;;;10.20;99.90;;;;;;4972593;28;20038;-84
2021/05/22 04:57:56;;;;;;;3.20;0.20;;;10.20;99.90;;;;;;5005928;28;20034;-82
2021/05/22 05:00:22;;;;;;;1.67;0.20;;;10.20;99.90;;;;;;4988668;28;20019;-84
2021/05/22 05:02:48;;;;;;;5.50;0.30;;;10.20;99.90;;;;;;4988364;28;20037;-83
2021/05/22 05:05:14;;;;;;;3.70;0.30;;;10.20;99.90;;;;;;5005793;28;20065;-82
2021/05/22 05:07:41;;;;;;;4.47;0.30;;;10.20;99.90;;;;;;5004160;28;20055;-82
2021/05/22 05:10:09;;;;;;;6.07;0.30;;;10.10;99.90;;;;;;5004649;28;20061;-83
2021/05/22 05:12:34;;;;;;;3.95;0.30;;;10.10;99.90;;;;;;4988440;28;20042;-83
2021/05/22 05:15:00;;;;;;;5.38;0.30;;;10.10;99.90;;;;;;5004661;28;20030;-83
2021/05/22 05:17:26;;;;;;;3.67;0.32;;;10.10;99.90;;;;;;5005737;28;20382;-82
2021/05/22 05:19:51;;;;;;;1.88;0.30;;;10.10;99.90;;;;;;5004632;28;20026;-83
2021/05/22 05:22:17;;;;;;;4.15;0.30;;;10.00;99.90;;;;;;5005537;28;20041;-83
2021/05/22 05:24:42;;;;;;;5.45;0.60;;;10.00;99.90;;;;;;5005974;28;20497;-83
2021/05/22 05:27:08;;;;;;;3.28;0.20;;;9.90;99.90;;;;;;5005553;28;20034;-81
2021/05/22 05:29:39;;;;;;;3.28;0.20;;;9.90;99.90;;;;;;4972384;28;20034;-83
2021/05/22 05:32:07;;;;;;;4.70;0.30;;;10.00;99.90;;;;;;4988416;28;20034;-82
2021/05/22 05:34:32;;;;;;;3.75;0.20;;;10.00;99.90;;;;;;5005729;28;20041;-83
2021/05/22 05:36:58;;;;;;;5.18;0.63;;;9.90;99.90;;;;;;5005231;28;20026;-83
2021/05/22 05:39:23;;;;;;;2.90;0.55;;;9.90;99.90;;;;;;5005706;28;20034;-83
2021/05/22 05:41:49;;;;;;;3.65;0.90;;;9.90;99.90;;;;;;5005705;28;20113;-84
2021/05/22 05:44:15;;;;;;;3.47;0.30;;;9.90;99.90;;;;;;5005714;28;20042;-84
2021/05/22 05:46:40;;;;;;;4.35;0.30;;;10.00;99.90;;;;;;4987936;28;20033;-79
2021/05/22 05:49:06;;;;;;;2.63;0.30;;;9.90;99.90;;;;;;4988314;28;20030;-81
2021/05/22 05:51:31;;;;;;;5.55;0.30;;;9.90;99.90;;;;;;4988188;28;20054;-84
2021/05/22 05:53:57;;;;;;;3.25;0.22;;;10.00;99.90;;;;;;4988038;28;20039;-82
2021/05/22 05:56:22;;;;;;;4.15;0.40;;;9.90;99.90;;;;;;4968570;28;20027;-84
2021/05/22 05:58:48;;;;;;;3.53;0.30;;;9.90;99.90;;;;;;4986071;28;20031;-81
2021/05/22 06:01:14;;;;;;;4.72;0.30;;;9.90;99.90;;;;;;4966400;28;20038;-85
2021/05/22 06:03:40;;;;;;;4.63;0.30;;;9.90;99.90;;;;;;4952732;28;20047;-84
2021/05/22 06:06:06;;;;;;;4.05;0.30;;;9.90;99.90;;;;;;4952304;28;20114;-84
2021/05/22 06:08:32;;;;;;;3.95;0.32;;;9.90;99.90;;;;;;4962276;28;20031;-83
2021/05/22 06:10:59;;;;;;;4.25;0.40;;;9.90;99.90;;;;;;4968424;28;20038;-84
2021/05/22 06:13:31;;;;;;;5.30;0.32;;;9.80;99.90;;;;;;4968767;28;20383;-86
2021/05/22 06:18:37;;;;;;;8.63;0.40;;;9.80;99.90;;;;;;4968552;28;20130;-84
2021/05/22 06:21:05;;;;;;;3.75;0.30;;;9.80;99.90;;;;;;5002585;28;20038;-85
2021/05/22 06:23:31;;;;;;;7.30;0.50;;;9.80;99.90;;;;;;5007694;28;20129;-88
2021/05/22 06:25:58;;;;;;;4.82;0.30;;;9.80;99.90;;;;;;5004595;28;20026;-84
2021/05/22 06:28:25;;;;;;;4.20;0.30;;;9.80;99.90;;;;;;4991738;28;20030;-88
2021/05/22 06:30:51;;;;;;;7.22;0.40;;;9.80;99.90;;;;;;4991624;28;20094;-90
2021/05/22 06:33:17;;;;;;;2.85;0.50;;;9.90;99.90;;;;;;4991409;28;20050;-89
2021/05/22 06:35:42;;;;;;;5.28;0.50;;;9.90;99.90;;;;;;5008632;28;20057;-85
2021/05/22 06:38:09;;;;;;;7.35;0.98;;;9.90;99.90;;;;;;4991010;28;20057;-84
2021/05/22 06:40:35;;;;;;;7.68;0.40;;;9.80;99.90;;;;;;5008767;28;20037;-83
2021/05/22 06:43:01;;;;;;;7.22;0.77;;;9.90;99.90;;;;;;4991087;28;20053;-84
2021/05/22 06:45:28;;;;;;;6.60;0.40;;;9.90;99.90;;;;;;4991002;28;20030;-86
2021/05/22 06:47:54;;;;;;;8.20;0.50;;;9.80;99.90;;;;;;4991022;28;20034;-82
2021/05/22 06:50:20;;;;;;;4.05;0.40;;;9.80;99.90;;;;;;5008445;28;20048;-85
2021/05/22 06:52:46;;;;;;;4.32;0.70;;;9.70;99.90;;;;;;4990933;28;20090;-83
2021/05/22 06:55:12;;;;;;;3.60;0.30;;;9.80;99.90;;;;;;4990494;28;20057;-84
2021/05/22 06:57:37;;;;;;;1.77;0.30;;;9.90;99.90;;;;;;5008103;28;20057;-79
2021/05/22 07:00:07;;;;;;;4.07;0.40;;;9.90;99.90;;;;;;5007030;28;20113;-81
2021/05/22 07:02:33;;;;;;;9.13;1.10;;;9.90;99.90;;;;;;5006742;28;20038;-84
2021/05/22 07:05:18;;;;;;;6.07;0.80;;;9.90;99.90;;;;;;4990622;28;20069;-82
2021/05/22 07:07:44;;;;;;;5.32;0.70;;;9.90;99.90;;;;;;4982623;28;20047;-84
2021/05/22 07:10:30;;;;;;;4.10;0.30;;;10.00;99.90;;;;;;4966599;29;20082;-81
2021/05/22 07:12:56;;;;;;;3.88;0.68;;;9.90;99.90;;;;;;4893986;29;20044;-83
2021/05/22 07:15:21;;;;;;;5.53;0.40;;;9.90;99.90;;;;;;4909861;29;20104;-83
2021/05/22 07:17:47;;;;;;;2.85;0.40;;;9.90;99.90;;;;;;4909695;29;20032;-83
2021/05/22 07:20:14;;;;;;;8.18;0.50;;;9.90;99.90;;;;;;4910012;29;20253;-84
2021/05/22 07:22:40;;;;;;;5.07;0.30;;;9.90;99.90;;;;;;4891104;29;20064;-83
2021/05/22 07:25:06;;;;;;;3.45;0.52;;;9.90;99.90;;;;;;4912402;29;20054;-81
2021/05/22 07:27:35;;;;;;;2.28;0.30;;;10.00;99.90;;;;;;4896802;29;20032;-81
2021/05/22 07:30:02;;;;;;;6.72;0.65;;;10.00;99.90;;;;;;4912572;29;20048;-83
2021/05/22 07:32:28;;;;;;;4.03;0.50;;;10.00;99.90;;;;;;4911218;29;20040;-84
2021/05/22 07:34:54;;;;;;;3.80;0.40;;;10.00;99.90;;;;;;4899967;29;20040;-83
2021/05/22 07:37:19;;;;;;;4.28;0.40;;;10.00;99.90;;;;;;4894064;29;20049;-83
2021/05/22 07:39:45;;;;;;;3.92;0.93;;;10.10;99.90;;;;;;4909728;29;20037;-83
2021/05/22 07:42:12;;;;;;;4.45;0.32;;;10.20;99.90;;;;;;4910021;29;20032;-83
2021/05/22 07:44:37;;;;;;;3.95;0.30;;;10.20;99.90;;;;;;4917853;29;20062;-85
2021/05/22 07:47:03;;;;;;;6.53;0.50;;;10.20;99.90;;;;;;4928952;29;20099;-86
2021/05/22 07:49:37;;;;;;;6.78;0.40;;;10.10;99.90;;;;;;4951551;28;20092;-87
2021/05/22 07:52:07;;;;;;;6.30;0.50;;;10.20;99.90;;;;;;5008307;28;20041;-85
2021/05/22 07:54:36;;;;;;;4.80;0.60;;;10.20;99.90;;;;;;4990241;28;20038;-84
2021/05/22 07:57:06;;;;;;;3.30;0.40;;;10.00;99.90;;;;;;5007729;28;20037;-85
2021/05/22 07:59:32;;;;;;;4.60;0.50;;;10.00;99.90;;;;;;5007294;28;20038;-86
2021/05/22 08:02:01;;;;;;;3.40;0.30;;;10.10;99.90;;;;;;4974009;28;20098;-82
2021/05/22 08:04:26;;;;;;;4.25;0.40;;;10.10;99.90;;;;;;4990273;28;20048;-82
2021/05/22 08:06:52;;;;;;;2.30;0.65;;;10.10;99.90;;;;;;5006595;28;20066;-86
2021/05/22 08:09:18;;;;;;;5.28;0.60;;;10.20;99.90;;;;;;5007434;28;20134;-83
2021/05/22 08:11:45;;;;;;;2.58;0.40;;;10.10;99.90;;;;;;5005910;28;20034;-82
2021/05/22 08:14:11;;;;;;;4.32;0.30;;;10.20;99.90;;;;;;5006838;28;20110;-83
2021/05/22 08:16:38;;;;;;;6.07;0.40;;;10.30;99.90;;;;;;5007222;28;20053;-82
2021/05/22 08:19:06;;;;;;;3.20;0.40;;;10.30;99.90;;;;;;4990212;28;20039;-82
2021/05/22 08:21:33;;;;;;;4.07;0.88;;;10.20;99.90;;;;;;5007419;28;20030;-84
2021/05/22 08:23:59;;;;;;;5.88;0.43;;;10.30;99.90;;;;;;4989487;28;20046;-83
2021/05/22 08:26:25;;;;;;;4.53;0.47;;;10.40;99.90;;;;;;5007001;28;20023;-83
2021/05/22 08:28:52;;;;;;;3.10;0.55;;;10.50;99.90;;;;;;5007135;28;20034;-83
2021/05/22 08:31:19;;;;;;;2.75;0.35;;;10.40;99.90;;;;;;4989647;28;20041;-82
2021/05/22 08:33:45;;;;;;;4.47;0.50;;;10.50;99.90;;;;;;5006881;28;20076;-82
2021/05/22 08:36:11;;;;;;;3.75;0.50;;;10.50;99.90;;;;;;4989269;28;20030;-83
2021/05/22 08:38:37;;;;;;;4.40;0.40;;;10.50;99.90;;;;;;5006899;28;20104;-83
2021/05/22 08:41:04;;;;;;;5.65;0.38;;;10.40;99.90;;;;;;5007091;28;20026;-84
2021/05/22 08:43:30;;;;;;;2.78;0.50;;;10.40;99.90;;;;;;4984594;28;20058;-90
2021/05/22 08:45:57;;;;;;;4.53;0.30;;;10.40;99.90;;;;;;4987686;28;20026;-83
2021/05/22 08:48:22;;;;;;;5.97;0.40;;;10.40;99.90;;;;;;4970711;28;20518;-86
2021/05/22 08:50:48;;;;;;;1.77;0.40;;;10.40;99.90;;;;;;4989887;28;20031;-85
2021/05/22 08:53:16;;;;;;;3.05;1.08;;;10.40;99.90;;;;;;4994064;28;20434;-83
2021/05/22 08:55:44;;;;;;;1.88;0.32;;;10.40;99.90;;;;;;4979944;28;20019;-80
2021/05/22 08:58:10;;;;;;;1.58;0.30;;;10.50;99.90;;;;;;4983569;28;20074;-83
2021/05/22 09:00:39;;;;;;;2.13;0.43;;;10.50;99.90;;;;;;4997666;28;20025;-84
2021/05/22 09:03:12;;;;;;;3.00;0.40;;;10.50;99.90;;;;;;4999105;28;20038;-82
2021/05/22 09:05:41;;;;;;;3.13;0.32;;;10.50;99.90;;;;;;4976155;28;20037;-82
2021/05/22 09:08:13;;;;;;;2.78;0.40;;;10.60;99.90;;;;;;4988819;28;20057;-85
2021/05/22 09:10:40;;;;;;;2.58;0.40;;;10.50;99.90;;;;;;4989136;28;20034;-85
2021/05/22 09:13:22;;;;;;;2.22;0.40;;;10.50;99.90;;;;;;4989074;28;20033;-82
2021/05/22 09:15:53;;;;;;;4.22;0.40;;;10.50;99.90;;;;;;4988672;28;20030;-83
2021/05/22 09:18:20;;;;;;;1.55;0.30;;;10.60;99.90;;;;;;4967362;28;20046;-87
2021/05/22 09:20:59;;;;;;;2.75;0.40;;;10.50;99.90;;;;;;5002405;28;20038;-84
2021/05/22 09:23:29;;;;;;;2.97;0.60;;;10.50;99.90;;;;;;5006379;28;20042;-84
2021/05/22 09:25:58;;;;;;;3.25;0.40;;;10.60;99.90;;;;;;4990443;28;20098;-83
2021/05/22 09:28:30;;;;;;;1.90;0.40;;;10.60;99.90;;;;;;4986490;28;20042;-83
2021/05/22 09:30:57;;;;;;;3.60;0.70;;;10.60;99.90;;;;;;4969220;28;20027;-81
2021/05/22 09:33:32;;;;;;;2.58;0.43;;;10.80;99.90;;;;;;4985109;28;20034;-83
2021/05/22 09:36:11;;;;;;;1.08;0.50;;;10.70;99.90;;;;;;4986219;28;20040;-83
2021/05/22 09:38:40;;;;;;;2.58;0.32;;;10.80;99.90;;;;;;4986675;28;20046;-81
2021/05/22 09:41:20;;;;;;;5.60;0.80;;;10.90;99.90;;;;;;4969040;28;20074;-82
2021/05/22 09:44:04;;;;;;;2.08;0.50;;;10.80;99.90;;;;;;4952156;28;20097;-82
2021/05/22 09:46:30;;;;;;;3.20;0.60;;;10.90;99.90;;;;;;4985240;28;20035;-83
2021/05/22 09:49:07;;;;;;;2.45;0.40;;;11.00;99.90;;;;;;4985922;28;20038;-82
2021/05/22 09:51:35;;;;;;;1.70;0.77;;;10.90;99.90;;;;;;4968213;28;20030;-81
2021/05/22 09:54:00;;;;;;;1.67;0.40;;;10.90;99.90;;;;;;4969061;28;20039;-82
2021/05/22 09:56:27;;;;;;;2.67;0.43;;;10.90;99.90;;;;;;4980927;28;20567;-84
2021/05/22 09:58:58;;;;;;;1.95;0.50;;;10.90;99.90;;;;;;4982852;28;20027;-84
2021/05/22 10:01:30;;;;;;;2.17;0.50;;;10.90;99.90;;;;;;5008634;28;20126;-82
2021/05/22 10:04:15;;;;;;;2.47;0.50;;;11.00;99.90;;;;;;5001877;28;20062;-84
2021/05/22 10:06:42;;;;;;;2.33;0.50;;;11.00;99.90;;;;;;4990931;28;20031;-83
2021/05/22 10:09:18;;;;;;;3.45;0.50;;;11.00;99.90;;;;;;5009551;28;20057;-84
2021/05/22 10:12:04;;;;;;;1.85;0.50;;;11.00;99.90;;;;;;4992039;28;20066;-85
2021/05/22 10:14:34;;;;;;;3.35;0.50;;;11.00;99.90;;;;;;5009657;28;20042;-84
2021/05/22 10:17:02;;;;;;;1.42;0.40;;;11.00;99.90;;;;;;4992248;28;20129;-85
2021/05/22 10:19:30;;;;;;;2.20;0.50;;;11.10;99.90;;;;;;5007800;28;20034;-84
2021/05/22 10:21:58;;;;;;;1.77;0.50;;;11.20;99.90;;;;;;5009051;28;20034;-82
2021/05/22 10:24:24;;;;;;;2.78;0.70;;;11.20;99.90;;;;;;4991471;28;20070;-83
2021/05/22 10:26:51;;;;;;;1.80;0.60;;;11.20;99.90;;;;;;5008804;28;20434;-84
2021/05/22 10:29:17;;;;;;;2.83;0.60;;;11.10;99.90;;;;;;5006148;28;20035;-83
2021/05/22 10:31:42;;;;;;;2.95;0.70;;;11.20;99.90;;;;;;4939648;28;20150;-83
2021/05/22 10:34:16;;;;;;;5.85;0.75;;;11.10;99.90;;;;;;4983672;28;20161;-81
2021/05/22 10:37:04;;;;;;;1.92;0.50;;;11.10;99.90;;;;;;4987243;28;20035;-83
2021/05/22 10:39:39;;;;;;;2.78;0.60;;;11.30;99.90;;;;;;4986831;28;20043;-82
2021/05/22 10:42:29;;;;;;;2.35;0.50;;;11.20;99.90;;;;;;4971544;28;20038;-82
2021/05/22 10:44:56;;;;;;;3.22;0.70;;;11.20;99.90;;;;;;4986978;28;20039;-83
2021/05/22 10:47:26;;;;;;;1.92;0.52;;;11.10;99.90;;;;;;4971152;28;20042;-81
2021/05/22 10:49:56;;;;;;;1.30;0.40;;;11.10;99.90;;;;;;4970731;28;20031;-82
2021/05/22 10:52:26;;;;;;;2.28;0.50;;;11.20;99.90;;;;;;4986960;28;20066;-82
2021/05/22 10:55:08;;;;;;;1.35;0.40;;;11.30;99.90;;;;;;4971290;28;20037;-84
2021/05/22 10:57:45;;;;;;;1.48;0.50;;;11.40;99.90;;;;;;4987272;28;20081;-85
2021/05/22 11:00:14;;;;;;;1.35;0.50;;;11.50;99.90;;;;;;4987577;28;20102;-84
2021/05/22 11:02:44;;;;;;;4.13;0.60;;;11.50;99.90;;;;;;4987262;28;20065;-81
2021/05/22 11:05:40;;;;;;;4.00;0.73;;;11.60;99.90;;;;;;4972418;28;20062;-83
2021/05/22 11:08:08;;;;;;;3.50;0.50;;;11.80;99.90;;;;;;4916020;29;20043;-83
2021/05/22 11:10:49;;;;;;;1.60;0.50;;;11.80;99.90;;;;;;4932236;29;20047;-83
2021/05/22 11:13:20;;;;;;;1.63;0.50;;;11.70;99.90;;;;;;4938867;28;20070;-80
2021/05/22 11:15:54;;;;;;;1.20;0.50;;;11.60;99.90;;;;;;4943369;28;20041;-83
2021/05/22 11:18:27;;;;;;;1.92;0.50;;;11.70;99.90;;;;;;4975977;28;20039;-83
2021/05/22 11:21:08;;;;;;;2.53;0.50;;;11.70;99.90;;;;;;4967191;29;20070;-82
2021/05/22 11:24:12;;;;;;;1.77;0.50;;;11.70;99.90;;;;;;4950881;29;20075;-82
2021/05/22 11:26:45;;;;;;;5.32;0.63;;;11.80;99.90;;;;;;4891687;29;20075;-81
2021/05/22 11:29:11;;;;;;;1.55;0.50;;;11.80;99.90;;;;;;4909220;29;20091;-83
2021/05/22 11:31:37;;;;;;;3.05;0.70;;;11.90;99.90;;;;;;4881971;29;20041;-82
2021/05/22 11:34:22;;;;;;;2.38;0.50;;;11.70;99.90;;;;;;4893681;29;20181;-83
2021/05/22 11:37:09;;;;;;;2.15;0.50;;;11.90;99.90;;;;;;4893799;29;20040;-83
2021/05/22 11:39:47;;;;;;;1.63;0.50;;;11.90;99.90;;;;;;4909476;29;20045;-83
2021/05/22 11:42:33;;;;;;;2.45;0.60;;;11.90;99.90;;;;;;4891308;29;20052;-81
2021/05/22 11:45:00;;;;;;;3.33;1.08;;;11.90;99.90;;;;;;4902752;29;20075;-84
2021/05/22 11:47:37;;;;;;;1.98;0.50;;;11.80;99.90;;;;;;4912734;29;20036;-81
2021/05/22 11:50:04;;;;;;;5.82;0.60;;;11.80;99.90;;;;;;4903658;29;20085;-84
2021/05/22 11:52:32;;;;;;;2.97;0.43;;;11.60;99.90;;;;;;4902975;29;20060;-83
2021/05/22 11:55:00;;;;;;;1.85;0.40;;;11.50;99.90;;;;;;4887098;29;20047;-84
2021/05/22 11:57:26;;;;;;;1.95;0.68;;;11.40;99.90;;;;;;4943016;28;20063;-83
2021/05/22 11:59:51;;;;;;;2.25;0.50;;;11.30;99.90;;;;;;4977539;28;20031;-83
2021/05/22 12:02:37;;;;;;;1.80;0.47;;;11.20;99.90;;;;;;4983609;28;20031;-86
2021/05/22 12:05:43;;;;;;;2.45;0.60;;;11.20;99.90;;;;;;4985327;28;20046;-84
2021/05/22 12:08:16;;;;;;;2.67;1.20;;;11.00;99.90;;;;;;4961269;28;20106;-86
2021/05/22 12:10:42;;;;;;;2.88;0.70;;;11.30;99.90;;;;;;4983159;28;20026;-80
2021/05/22 12:13:08;;;;;;;2.40;1.30;;;11.20;99.90;;;;;;4954851;28;20039;-85
2021/05/22 12:15:34;;;;;;;1.80;0.70;;;11.40;99.90;;;;;;4965975;29;20037;-85
2021/05/22 12:18:00;;;;;;;2.33;0.70;;;11.70;99.90;;;;;;4949324;29;20066;-84
2021/05/22 12:20:27;;;;;;;2.88;1.30;;;11.60;99.90;;;;;;4950345;29;20035;-83
2021/05/22 12:22:54;;;;;;;2.85;0.80;;;11.70;99.90;;;;;;4966240;29;20420;-85
2021/05/22 12:25:20;;;;;;;3.38;1.10;;;11.90;99.90;;;;;;4939251;29;20043;-84
2021/05/22 12:27:46;;;;;;;2.92;1.15;;;11.70;99.90;;;;;;4942073;28;20030;-84
2021/05/22 12:30:12;;;;;;;3.13;1.15;;;11.60;99.90;;;;;;4965581;29;20580;-82
2021/05/22 12:32:39;;;;;;;3.13;1.15;;;11.40;99.90;;;;;;4952347;28;20181;-84
2021/05/22 12:35:08;;;;;;;3.17;1.40;;;11.40;99.90;;;;;;4983436;28;20034;-82
2021/05/22 12:37:39;;;;;;;2.60;1.73;;;11.30;99.90;;;;;;4984484;28;20042;-79
2021/05/22 12:40:09;;;;;;;4.15;1.30;;;11.20;99.90;;;;;;4967921;28;20027;-81
2021/05/22 12:42:39;;;;;;;3.80;1.33;;;11.20;99.90;;;;;;4952144;28;20122;-82
2021/05/22 12:45:08;;;;;;;3.25;1.30;;;11.20;99.90;;;;;;4977034;28;20057;-83
2021/05/22 12:47:48;;;;;;;4.53;1.65;;;11.30;99.90;;;;;;4985394;28;20122;-82
2021/05/22 12:50:35;;;;;;;3.28;1.73;;;11.30;99.90;;;;;;4985321;28;20049;-83
2021/05/22 12:53:06;;;;;;;7.10;3.10;;;11.40;99.90;;;;;;4985014;28;20491;-82
2021/05/22 12:55:37;;;;;;;6.55;2.95;;;11.80;99.90;;;;;;4985238;28;20035;-84
2021/05/22 12:58:08;;;;;;;4.32;2.50;;;11.70;99.90;;;;;;4969206;28;20118;-85
2021/05/22 13:00:34;;;;;;;3.88;2.58;;;11.60;99.90;;;;;;4983207;28;20034;-82
2021/05/22 13:03:02;;;;;;;3.05;2.38;;;11.50;99.90;;;;;;4986220;28;20035;-84